38NY weather

Greenlawn Farm Airport
Dundee, New York, United States

Public forecast

Using degrees Fahrenheit for public forecast. Weather courtesy of forecast.io.

Closest aviation weather report (METAR) to Greenlawn Farm Airport

Closest report is Penn Yan Airport, 6.8 nm (12.5 km) NW. Retrieved 2019/12/09 08:53 UTC (58 minutes ago):

KPEO 090853Z AUTO 20013KT 10SM OVC070 04/M04 A3004 RMK AO2 SLP181 T00441039 58007

Closest aviation forecast (TAF) to Greenlawn Farm Airport

Closest forecast is Ithaca Tompkins Regional Airport, 22.4 nm (41.4 km) E. Retrieved 2019/12/09 06:40 UTC (3 hours ago):

TAF KITH 090538Z 0906/1006 18012KT P6SM OVC050 WS020/20030KT FM091300 17010KT 5SM -RA OVC035 FM091600 17010KT 2SM -RA OVC011 WS020/20035KT FM092000 18016G23KT 3SM -RA BR OVC009 WS020/21050KT FM100300 18011KT 3SM -RA BR OVC011 WS020/21045KT